ARG1341 SGAS-SABE
Flight info
| Callsign | ARG1341 |
|---|---|
| Flight time | 1h 29m |
| Altitude | FL360 |
| Route | ITAPE ASATI UP526 REPAM UZ103 DALAB UL793 GUA UZ129 PAGON PAGO8Q |
| Aircraft | B38M/M-SDE2E3FGHIRWXY/LB1 |
Departure
| Time | 2026-04-24 22:36 |
|---|---|
| Airport | Silvio Pettirossi International Airport (SGAS) |
Arrival
| Time | 2026-04-25 00:05 |
|---|---|
| Airport | Aeroparque Jorge Newbery (SABE) |
| Time | Latitude | Longitude | Altitude | Speed | Heading |
|---|---|---|---|---|---|
| 2026-04-24 22:01 | -25.24234 | -57.51545 | 248 ft | 0 kts | 103° |
| 2026-04-24 22:24 | -25.24234 | -57.51547 | 281 ft | 2 kts | 102° |
| 2026-04-24 22:25 | -25.24230 | -57.51575 | 288 ft | 4 kts | 88° |
| 2026-04-24 22:25 | -25.24235 | -57.51604 | 281 ft | 4 kts | 68° |
| 2026-04-24 22:25 | -25.24248 | -57.51629 | 287 ft | 4 kts | 45° |
| 2026-04-24 22:25 | -25.24270 | -57.51645 | 281 ft | 4 kts | 18° |
| 2026-04-24 22:26 | -25.24278 | -57.51647 | 283 ft | 0 kts | 12° |
| 2026-04-24 22:30 | -25.24270 | -57.51645 | 281 ft | 3 kts | 12° |
| 2026-04-24 22:30 | -25.24229 | -57.51641 | 283 ft | 9 kts | 2° |
| 2026-04-24 22:30 | -25.24145 | -57.51625 | 281 ft | 14 kts | 12° |
| 2026-04-24 22:31 | -25.24065 | -57.51609 | 281 ft | 10 kts | 359° |
| 2026-04-24 22:31 | -25.23999 | -57.51646 | 281 ft | 12 kts | 324° |
| 2026-04-24 22:31 | -25.23921 | -57.51676 | 281 ft | 13 kts | 6° |
| 2026-04-24 22:31 | -25.23826 | -57.51656 | 281 ft | 15 kts | 12° |
| 2026-04-24 22:32 | -25.23721 | -57.51630 | 281 ft | 16 kts | 12° |
| 2026-04-24 22:32 | -25.23605 | -57.51601 | 280 ft | 18 kts | 12° |
| 2026-04-24 22:32 | -25.23478 | -57.51570 | 280 ft | 20 kts | 13° |
| 2026-04-24 22:32 | -25.23341 | -57.51537 | 280 ft | 21 kts | 12° |
| 2026-04-24 22:33 | -25.23195 | -57.51501 | 280 ft | 22 kts | 12° |
| 2026-04-24 22:33 | -25.23039 | -57.51463 | 282 ft | 24 kts | 13° |
| 2026-04-24 22:33 | -25.22874 | -57.51423 | 279 ft | 25 kts | 12° |
| 2026-04-24 22:33 | -25.22708 | -57.51382 | 279 ft | 23 kts | 13° |
| 2026-04-24 22:34 | -25.22577 | -57.51365 | 279 ft | 17 kts | 336° |
| 2026-04-24 22:34 | -25.22532 | -57.51459 | 276 ft | 0 kts | 283° |
| 2026-04-24 22:34 | -25.22527 | -57.51489 | 272 ft | 8 kts | 278° |
| 2026-04-24 22:34 | -25.22541 | -57.51551 | 270 ft | 7 kts | 225° |
| 2026-04-24 22:35 | -25.22591 | -57.51574 | 270 ft | 11 kts | 193° |
| 2026-04-24 22:35 | -25.22902 | -57.51648 | 274 ft | 81 kts | 192° |
| 2026-04-24 22:35 | -25.23666 | -57.51833 | 277 ft | 141 kts | 192° |
| 2026-04-24 22:35 | -25.24771 | -57.52107 | 367 ft | 178 kts | 193° |
| 2026-04-24 22:36 | -25.25960 | -57.52392 | 1080 ft | 172 kts | 193° |
| 2026-04-24 22:36 | -25.27129 | -57.52678 | 1760 ft | 175 kts | 193° |
| 2026-04-24 22:36 | -25.28361 | -57.52978 | 2245 ft | 190 kts | 193° |
| 2026-04-24 22:36 | -25.29734 | -57.53313 | 2625 ft | 214 kts | 193° |
| 2026-04-24 22:37 | -25.31280 | -57.53689 | 2985 ft | 242 kts | 193° |
| 2026-04-24 22:37 | -25.32972 | -57.54101 | 3723 ft | 251 kts | 193° |
| 2026-04-24 22:37 | -25.34754 | -57.54388 | 4385 ft | 269 kts | 180° |
| 2026-04-24 22:37 | -25.36629 | -57.53950 | 4988 ft | 284 kts | 152° |
| 2026-04-24 22:38 | -25.38167 | -57.52620 | 5934 ft | 285 kts | 131° |
| 2026-04-24 22:38 | -25.39533 | -57.50990 | 6684 ft | 294 kts | 133° |
| 2026-04-24 22:38 | -25.40948 | -57.49353 | 7540 ft | 297 kts | 133° |
| 2026-04-24 22:38 | -25.42395 | -57.47698 | 8355 ft | 302 kts | 135° |
| 2026-04-24 22:39 | -25.44120 | -57.46397 | 9215 ft | 303 kts | 160° |
| 2026-04-24 22:39 | -25.46154 | -57.45770 | 10012 ft | 307 kts | 170° |
| 2026-04-24 22:39 | -25.48289 | -57.45287 | 10506 ft | 323 kts | 165° |
| 2026-04-24 22:39 | -25.50475 | -57.44451 | 10874 ft | 342 kts | 162° |
| 2026-04-24 22:40 | -25.52767 | -57.43603 | 11383 ft | 354 kts | 163° |
| 2026-04-24 22:40 | -25.55123 | -57.42818 | 12122 ft | 355 kts | 170° |
| 2026-04-24 22:40 | -25.57575 | -57.42711 | 12813 ft | 354 kts | 191° |
| 2026-04-24 22:40 | -25.60008 | -57.43171 | 13524 ft | 358 kts | 193° |
| 2026-04-24 22:41 | -25.62467 | -57.43660 | 14189 ft | 361 kts | 193° |
| 2026-04-24 22:41 | -25.64944 | -57.44166 | 14854 ft | 364 kts | 194° |
| 2026-04-24 22:41 | -25.67434 | -57.44686 | 15514 ft | 367 kts | 194° |
| 2026-04-24 22:41 | -25.69106 | -57.45038 | 15932 ft | 369 kts | 194° |
| 2026-04-24 22:42 | -25.72471 | -57.45749 | 16781 ft | 372 kts | 194° |
| 2026-04-24 22:42 | -25.75018 | -57.46289 | 17386 ft | 375 kts | 195° |
| 2026-04-24 22:42 | -25.77585 | -57.46833 | 17991 ft | 377 kts | 195° |
| 2026-04-24 22:42 | -25.80168 | -57.47380 | 18533 ft | 380 kts | 195° |
| 2026-04-24 22:43 | -25.82767 | -57.47932 | 19023 ft | 382 kts | 195° |
| 2026-04-24 22:43 | -25.85384 | -57.48487 | 19508 ft | 385 kts | 195° |
| 2026-04-24 22:43 | -25.88015 | -57.49046 | 19987 ft | 387 kts | 196° |
| 2026-04-24 22:43 | -25.90664 | -57.49609 | 20458 ft | 390 kts | 196° |
| 2026-04-24 22:44 | -25.93331 | -57.50176 | 20917 ft | 392 kts | 196° |
| 2026-04-24 22:44 | -25.96015 | -57.50746 | 21382 ft | 395 kts | 196° |
| 2026-04-24 22:44 | -25.98712 | -57.51320 | 21852 ft | 397 kts | 196° |
| 2026-04-24 22:44 | -26.01431 | -57.51899 | 22297 ft | 400 kts | 196° |
| 2026-04-24 22:45 | -26.04164 | -57.52481 | 22731 ft | 402 kts | 197° |
| 2026-04-24 22:45 | -26.06914 | -57.53067 | 23161 ft | 405 kts | 196° |
| 2026-04-24 22:45 | -26.09742 | -57.53365 | 23584 ft | 414 kts | 185° |
| 2026-04-24 22:45 | -26.12618 | -57.53376 | 23948 ft | 416 kts | 186° |
| 2026-04-24 22:46 | -26.15518 | -57.53411 | 24272 ft | 419 kts | 186° |
| 2026-04-24 22:46 | -26.18428 | -57.53443 | 24630 ft | 421 kts | 186° |
| 2026-04-24 22:46 | -26.21362 | -57.53475 | 24973 ft | 423 kts | 186° |
| 2026-04-24 22:46 | -26.24311 | -57.53507 | 25318 ft | 426 kts | 186° |
| 2026-04-24 22:47 | -26.27274 | -57.53539 | 25658 ft | 428 kts | 186° |
| 2026-04-24 22:47 | -26.30253 | -57.53570 | 25988 ft | 431 kts | 187° |
| 2026-04-24 22:47 | -26.33251 | -57.53603 | 26336 ft | 433 kts | 187° |
| 2026-04-24 22:47 | -26.36263 | -57.53635 | 26662 ft | 435 kts | 187° |
| 2026-04-24 22:48 | -26.39294 | -57.53668 | 26982 ft | 438 kts | 187° |
| 2026-04-24 22:48 | -26.42343 | -57.53701 | 27312 ft | 440 kts | 187° |
| 2026-04-24 22:48 | -26.45410 | -57.53734 | 27628 ft | 442 kts | 187° |
| 2026-04-24 22:48 | -26.48488 | -57.53767 | 27949 ft | 445 kts | 187° |
| 2026-04-24 22:49 | -26.51588 | -57.53800 | 28258 ft | 447 kts | 187° |
| 2026-04-24 22:49 | -26.54700 | -57.53834 | 28582 ft | 449 kts | 187° |
| 2026-04-24 22:49 | -26.57827 | -57.53868 | 28883 ft | 452 kts | 187° |
| 2026-04-24 22:49 | -26.60971 | -57.53902 | 29179 ft | 454 kts | 187° |
| 2026-04-24 22:50 | -26.64133 | -57.53936 | 29473 ft | 456 kts | 187° |
| 2026-04-24 22:50 | -26.67308 | -57.53970 | 29764 ft | 458 kts | 187° |
| 2026-04-24 22:50 | -26.70498 | -57.54005 | 30052 ft | 460 kts | 187° |
| 2026-04-24 22:50 | -26.73701 | -57.54039 | 30291 ft | 462 kts | 187° |
| 2026-04-24 22:51 | -26.76919 | -57.54074 | 30547 ft | 464 kts | 187° |
| 2026-04-24 22:51 | -26.80141 | -57.54109 | 30800 ft | 465 kts | 187° |
| 2026-04-24 22:51 | -26.83379 | -57.54144 | 31047 ft | 467 kts | 187° |
| 2026-04-24 22:51 | -26.86616 | -57.54217 | 31290 ft | 467 kts | 189° |
| 2026-04-24 22:52 | -26.89866 | -57.54317 | 31528 ft | 469 kts | 189° |
| 2026-04-24 22:52 | -26.93127 | -57.54412 | 31777 ft | 470 kts | 189° |
| 2026-04-24 22:52 | -26.96394 | -57.54505 | 32021 ft | 472 kts | 189° |
| 2026-04-24 22:52 | -26.99675 | -57.54598 | 32256 ft | 473 kts | 189° |
| 2026-04-24 22:53 | -27.02965 | -57.54692 | 32492 ft | 475 kts | 189° |
| 2026-04-24 22:53 | -27.06258 | -57.54786 | 32791 ft | 475 kts | 189° |
| 2026-04-24 22:53 | -27.09555 | -57.54880 | 33099 ft | 474 kts | 189° |
| 2026-04-24 22:53 | -27.12837 | -57.54973 | 33475 ft | 473 kts | 189° |
| 2026-04-24 22:54 | -27.16121 | -57.55067 | 33863 ft | 472 kts | 189° |
| 2026-04-24 22:54 | -27.19388 | -57.55160 | 34187 ft | 470 kts | 189° |
| 2026-04-24 22:54 | -27.22653 | -57.55253 | 34487 ft | 469 kts | 190° |
| 2026-04-24 22:54 | -27.25901 | -57.55346 | 34771 ft | 468 kts | 190° |
| 2026-04-24 22:55 | -27.29141 | -57.55438 | 35045 ft | 467 kts | 190° |
| 2026-04-24 22:55 | -27.32378 | -57.55531 | 35314 ft | 465 kts | 190° |
| 2026-04-24 22:55 | -27.35600 | -57.55623 | 35632 ft | 463 kts | 190° |
| 2026-04-24 22:55 | -27.38814 | -57.55715 | 35963 ft | 462 kts | 191° |
| 2026-04-24 22:56 | -27.42015 | -57.55821 | 36232 ft | 459 kts | 193° |
| 2026-04-24 22:56 | -27.45083 | -57.56421 | 36572 ft | 443 kts | 203° |
| 2026-04-24 22:56 | -27.48092 | -57.57197 | 36805 ft | 445 kts | 202° |
| 2026-04-24 22:56 | -27.51099 | -57.57960 | 37099 ft | 443 kts | 202° |
| 2026-04-24 22:57 | -27.54097 | -57.58733 | 37391 ft | 443 kts | 202° |
| 2026-04-24 22:57 | -27.57089 | -57.59508 | 37678 ft | 442 kts | 203° |
| 2026-04-24 22:57 | -27.60073 | -57.60283 | 37961 ft | 440 kts | 203° |
| 2026-04-24 22:57 | -27.63054 | -57.61057 | 38011 ft | 440 kts | 203° |
| 2026-04-24 22:58 | -27.68974 | -57.62596 | 38010 ft | 437 kts | 203° |
| 2026-04-24 22:58 | -27.74891 | -57.64136 | 38012 ft | 437 kts | 203° |
| 2026-04-24 22:59 | -27.80803 | -57.65677 | 38042 ft | 437 kts | 204° |
| 2026-04-24 23:00 | -27.89657 | -57.67988 | 38009 ft | 437 kts | 203° |
| 2026-04-24 23:00 | -27.95573 | -57.69534 | 38027 ft | 437 kts | 203° |
| 2026-04-24 23:01 | -28.01490 | -57.71082 | 37961 ft | 436 kts | 204° |
| 2026-04-24 23:01 | -28.07397 | -57.72629 | 38014 ft | 438 kts | 204° |
| 2026-04-24 23:02 | -28.13308 | -57.74179 | 38044 ft | 437 kts | 204° |
| 2026-04-24 23:02 | -28.19209 | -57.75729 | 38029 ft | 436 kts | 203° |
| 2026-04-24 23:03 | -28.25100 | -57.77277 | 38049 ft | 437 kts | 204° |
| 2026-04-24 23:03 | -28.31031 | -57.78823 | 38025 ft | 436 kts | 203° |
| 2026-04-24 23:04 | -28.36918 | -57.80344 | 37947 ft | 434 kts | 204° |
| 2026-04-24 23:04 | -28.42778 | -57.81861 | 38040 ft | 434 kts | 204° |
| 2026-04-24 23:05 | -28.48670 | -57.83388 | 38023 ft | 435 kts | 204° |
| 2026-04-24 23:05 | -28.54566 | -57.84917 | 38025 ft | 435 kts | 204° |
| 2026-04-24 23:06 | -28.60463 | -57.86448 | 38019 ft | 436 kts | 204° |
| 2026-04-24 23:06 | -28.66364 | -57.87983 | 38026 ft | 436 kts | 204° |
| 2026-04-24 23:07 | -28.72260 | -57.89518 | 38025 ft | 436 kts | 204° |
| 2026-04-24 23:07 | -28.78161 | -57.91055 | 38027 ft | 436 kts | 204° |
| 2026-04-24 23:08 | -28.84058 | -57.92594 | 38027 ft | 436 kts | 204° |
| 2026-04-24 23:08 | -28.89958 | -57.94135 | 38028 ft | 436 kts | 204° |
| 2026-04-24 23:09 | -28.95857 | -57.95678 | 38027 ft | 436 kts | 205° |
| 2026-04-24 23:09 | -29.01755 | -57.97222 | 38027 ft | 436 kts | 205° |
| 2026-04-24 23:10 | -29.07657 | -57.98769 | 38027 ft | 436 kts | 205° |
| 2026-04-24 23:10 | -29.13555 | -58.00316 | 38028 ft | 436 kts | 205° |
| 2026-04-24 23:11 | -29.19454 | -58.01867 | 38028 ft | 436 kts | 205° |
| 2026-04-24 23:11 | -29.25353 | -58.03418 | 38030 ft | 436 kts | 205° |
| 2026-04-24 23:12 | -29.31242 | -58.04969 | 38034 ft | 435 kts | 205° |
| 2026-04-24 23:12 | -29.37136 | -58.06523 | 38027 ft | 435 kts | 205° |
| 2026-04-24 23:13 | -29.43067 | -58.07965 | 38033 ft | 440 kts | 202° |
| 2026-04-24 23:13 | -29.49083 | -58.09199 | 38027 ft | 440 kts | 202° |
| 2026-04-24 23:13 | -29.52085 | -58.09826 | 38133 ft | 439 kts | 205° |
| 2026-04-24 23:14 | -29.55057 | -58.10449 | 38060 ft | 432 kts | 205° |
| 2026-04-24 23:14 | -29.60912 | -58.11685 | 38045 ft | 428 kts | 205° |
| 2026-04-24 23:15 | -29.66759 | -58.12919 | 38037 ft | 428 kts | 205° |
| 2026-04-24 23:15 | -29.72602 | -58.14153 | 38032 ft | 428 kts | 205° |
| 2026-04-24 23:16 | -29.78450 | -58.15390 | 38034 ft | 428 kts | 205° |
| 2026-04-24 23:16 | -29.84326 | -58.16548 | 38036 ft | 430 kts | 205° |
| 2026-04-24 23:17 | -29.90219 | -58.17669 | 38039 ft | 430 kts | 205° |
| 2026-04-24 23:17 | -29.96105 | -58.18794 | 38037 ft | 430 kts | 205° |
| 2026-04-24 23:18 | -30.01990 | -58.19922 | 38039 ft | 430 kts | 205° |
| 2026-04-24 23:18 | -30.07877 | -58.21050 | 38039 ft | 430 kts | 205° |
| 2026-04-24 23:19 | -30.13763 | -58.22180 | 38036 ft | 430 kts | 205° |
| 2026-04-24 23:19 | -30.19652 | -58.23312 | 38038 ft | 430 kts | 205° |
| 2026-04-24 23:20 | -30.25537 | -58.24444 | 38036 ft | 430 kts | 205° |
| 2026-04-24 23:20 | -30.31420 | -58.25578 | 38038 ft | 430 kts | 205° |
| 2026-04-24 23:21 | -30.37305 | -58.26713 | 38041 ft | 429 kts | 205° |
| 2026-04-24 23:21 | -30.43191 | -58.27850 | 38035 ft | 430 kts | 206° |
| 2026-04-24 23:22 | -30.49072 | -58.28987 | 38045 ft | 429 kts | 206° |
| 2026-04-24 23:22 | -30.54956 | -58.30126 | 38038 ft | 429 kts | 206° |
| 2026-04-24 23:23 | -30.60812 | -58.31318 | 38039 ft | 426 kts | 207° |
| 2026-04-24 23:23 | -30.66625 | -58.32595 | 38036 ft | 426 kts | 207° |
| 2026-04-24 23:24 | -30.72450 | -58.33865 | 38042 ft | 426 kts | 207° |
| 2026-04-24 23:24 | -30.78272 | -58.35136 | 38044 ft | 427 kts | 207° |
| 2026-04-24 23:25 | -30.84092 | -58.36407 | 38047 ft | 427 kts | 207° |
| 2026-04-24 23:25 | -30.89928 | -58.37655 | 38041 ft | 429 kts | 206° |
| 2026-04-24 23:26 | -30.95795 | -58.38831 | 38046 ft | 429 kts | 207° |
| 2026-04-24 23:26 | -31.01655 | -58.40017 | 38054 ft | 428 kts | 207° |
| 2026-04-24 23:27 | -31.07508 | -58.41204 | 38044 ft | 428 kts | 207° |
| 2026-04-24 23:27 | -31.13358 | -58.42391 | 38041 ft | 428 kts | 207° |
| 2026-04-24 23:28 | -31.19206 | -58.43580 | 38050 ft | 427 kts | 207° |
| 2026-04-24 23:28 | -31.25051 | -58.44769 | 38046 ft | 427 kts | 207° |
| 2026-04-24 23:29 | -31.30882 | -58.45958 | 38047 ft | 427 kts | 207° |
| 2026-04-24 23:29 | -31.36714 | -58.47148 | 38046 ft | 426 kts | 207° |
| 2026-04-24 23:30 | -31.42555 | -58.48341 | 38050 ft | 426 kts | 207° |
| 2026-04-24 23:30 | -31.48386 | -58.49534 | 38049 ft | 426 kts | 207° |
| 2026-04-24 23:31 | -31.54219 | -58.50728 | 38049 ft | 427 kts | 207° |
| 2026-04-24 23:31 | -31.60060 | -58.51926 | 38051 ft | 427 kts | 207° |
| 2026-04-24 23:32 | -31.65908 | -58.53127 | 38046 ft | 428 kts | 206° |
| 2026-04-24 23:32 | -31.71765 | -58.54331 | 38048 ft | 428 kts | 206° |
| 2026-04-24 23:33 | -31.77627 | -58.55538 | 38049 ft | 429 kts | 206° |
| 2026-04-24 23:33 | -31.83499 | -58.56748 | 38046 ft | 430 kts | 206° |
| 2026-04-24 23:34 | -31.89386 | -58.57963 | 38043 ft | 431 kts | 205° |
| 2026-04-24 23:34 | -31.95279 | -58.59181 | 38049 ft | 431 kts | 205° |
| 2026-04-24 23:35 | -32.01180 | -58.60402 | 38041 ft | 432 kts | 205° |
| 2026-04-24 23:35 | -32.07094 | -58.61627 | 38032 ft | 433 kts | 205° |
| 2026-04-24 23:36 | -32.13020 | -58.62857 | 38037 ft | 434 kts | 204° |
| 2026-04-24 23:36 | -32.18953 | -58.64089 | 38038 ft | 434 kts | 204° |
| 2026-04-24 23:37 | -32.24910 | -58.65328 | 38039 ft | 438 kts | 204° |
| 2026-04-24 23:37 | -32.34014 | -58.66942 | 38013 ft | 460 kts | 191° |
| 2026-04-24 23:38 | -32.40455 | -58.66465 | 38028 ft | 466 kts | 189° |
| 2026-04-24 23:38 | -32.46926 | -58.65949 | 38035 ft | 468 kts | 189° |
| 2026-04-24 23:39 | -32.53400 | -58.65411 | 38039 ft | 467 kts | 189° |
| 2026-04-24 23:39 | -32.59877 | -58.64870 | 38038 ft | 468 kts | 188° |
| 2026-04-24 23:40 | -32.66360 | -58.64327 | 37851 ft | 468 kts | 188° |
| 2026-04-24 23:40 | -32.69605 | -58.64054 | 37051 ft | 470 kts | 188° |
| 2026-04-24 23:40 | -32.72874 | -58.63780 | 36253 ft | 472 kts | 187° |
| 2026-04-24 23:41 | -32.76148 | -58.63505 | 35495 ft | 474 kts | 187° |
| 2026-04-24 23:41 | -32.79438 | -58.63228 | 34764 ft | 474 kts | 187° |
| 2026-04-24 23:41 | -32.82694 | -58.62954 | 34045 ft | 466 kts | 186° |
| 2026-04-24 23:41 | -32.85896 | -58.62684 | 33244 ft | 458 kts | 186° |
| 2026-04-24 23:42 | -32.89048 | -58.62418 | 32461 ft | 451 kts | 185° |
| 2026-04-24 23:42 | -32.92142 | -58.62157 | 31705 ft | 444 kts | 185° |
| 2026-04-24 23:42 | -32.95194 | -58.61900 | 30971 ft | 437 kts | 184° |
| 2026-04-24 23:42 | -32.98195 | -58.61648 | 30259 ft | 431 kts | 184° |
| 2026-04-24 23:43 | -33.01150 | -58.61445 | 29512 ft | 419 kts | 188° |
| 2026-04-24 23:43 | -33.03976 | -58.61755 | 28837 ft | 404 kts | 193° |
| 2026-04-24 23:43 | -33.06744 | -58.62083 | 28161 ft | 397 kts | 193° |
| 2026-04-24 23:43 | -33.09464 | -58.62397 | 27501 ft | 390 kts | 193° |
| 2026-04-24 23:44 | -33.12143 | -58.62707 | 26853 ft | 385 kts | 192° |
| 2026-04-24 23:44 | -33.14781 | -58.63013 | 26224 ft | 379 kts | 192° |
| 2026-04-24 23:44 | -33.17387 | -58.63315 | 25605 ft | 375 kts | 192° |
| 2026-04-24 23:44 | -33.19962 | -58.63614 | 25002 ft | 370 kts | 192° |
| 2026-04-24 23:45 | -33.22508 | -58.63909 | 24400 ft | 367 kts | 192° |
| 2026-04-24 23:45 | -33.25031 | -58.64202 | 23820 ft | 363 kts | 192° |
| 2026-04-24 23:45 | -33.27532 | -58.64493 | 23173 ft | 361 kts | 192° |
| 2026-04-24 23:45 | -33.30014 | -58.64782 | 22488 ft | 358 kts | 192° |
| 2026-04-24 23:46 | -33.32479 | -58.65069 | 21820 ft | 355 kts | 191° |
| 2026-04-24 23:46 | -33.34929 | -58.65354 | 21159 ft | 353 kts | 191° |
| 2026-04-24 23:46 | -33.37358 | -58.65637 | 20524 ft | 351 kts | 191° |
| 2026-04-24 23:46 | -33.39778 | -58.65919 | 19890 ft | 349 kts | 191° |
| 2026-04-24 23:47 | -33.42183 | -58.66199 | 19272 ft | 347 kts | 191° |
| 2026-04-24 23:47 | -33.44579 | -58.66479 | 18665 ft | 346 kts | 191° |
| 2026-04-24 23:47 | -33.46962 | -58.66756 | 18015 ft | 344 kts | 191° |
| 2026-04-24 23:47 | -33.49336 | -58.67033 | 17337 ft | 342 kts | 191° |
| 2026-04-24 23:48 | -33.51699 | -58.67309 | 16664 ft | 341 kts | 190° |
| 2026-04-24 23:48 | -33.54048 | -58.67583 | 16013 ft | 339 kts | 189° |
| 2026-04-24 23:48 | -33.56382 | -58.67856 | 15386 ft | 337 kts | 189° |
| 2026-04-24 23:48 | -33.58691 | -58.68126 | 14902 ft | 331 kts | 189° |
| 2026-04-24 23:49 | -33.60954 | -58.68391 | 14443 ft | 324 kts | 188° |
| 2026-04-24 23:49 | -33.63169 | -58.68651 | 13981 ft | 319 kts | 188° |
| 2026-04-24 23:49 | -33.65355 | -58.68908 | 13566 ft | 311 kts | 188° |
| 2026-04-24 23:49 | -33.67457 | -58.69155 | 13293 ft | 299 kts | 188° |
| 2026-04-24 23:50 | -33.69509 | -58.69396 | 13026 ft | 300 kts | 188° |
| 2026-04-24 23:50 | -33.71614 | -58.69643 | 12708 ft | 308 kts | 188° |
| 2026-04-24 23:50 | -33.73757 | -58.69895 | 12403 ft | 311 kts | 187° |
| 2026-04-24 23:50 | -33.75908 | -58.70147 | 12116 ft | 311 kts | 187° |
| 2026-04-24 23:51 | -33.78051 | -58.70399 | 11801 ft | 309 kts | 187° |
| 2026-04-24 23:51 | -33.80186 | -58.70650 | 11508 ft | 308 kts | 187° |
| 2026-04-24 23:51 | -33.82307 | -58.70900 | 11194 ft | 306 kts | 187° |
| 2026-04-24 23:51 | -33.84416 | -58.71148 | 10897 ft | 305 kts | 187° |
| 2026-04-24 23:52 | -33.86516 | -58.71396 | 10602 ft | 303 kts | 187° |
| 2026-04-24 23:52 | -33.88577 | -58.71639 | 10439 ft | 291 kts | 187° |
| 2026-04-24 23:52 | -33.90543 | -58.71870 | 10313 ft | 279 kts | 187° |
| 2026-04-24 23:52 | -33.92440 | -58.72084 | 10184 ft | 271 kts | 187° |
| 2026-04-24 23:53 | -33.94291 | -58.72272 | 10014 ft | 265 kts | 187° |
| 2026-04-24 23:53 | -33.96125 | -58.72459 | 9747 ft | 267 kts | 187° |
| 2026-04-24 23:53 | -33.97992 | -58.72651 | 9440 ft | 272 kts | 187° |
| 2026-04-24 23:53 | -33.99883 | -58.72846 | 9168 ft | 274 kts | 187° |
| 2026-04-24 23:54 | -34.01780 | -58.73042 | 8899 ft | 275 kts | 186° |
| 2026-04-24 23:54 | -34.03680 | -58.73239 | 8624 ft | 275 kts | 186° |
| 2026-04-24 23:54 | -34.05580 | -58.73435 | 8359 ft | 275 kts | 187° |
| 2026-04-24 23:54 | -34.07484 | -58.73632 | 8067 ft | 275 kts | 186° |
| 2026-04-24 23:55 | -34.09375 | -58.73828 | 7794 ft | 272 kts | 186° |
| 2026-04-24 23:55 | -34.11245 | -58.74022 | 7524 ft | 269 kts | 186° |
| 2026-04-24 23:55 | -34.13100 | -58.74213 | 7263 ft | 267 kts | 186° |
| 2026-04-24 23:55 | -34.14951 | -58.74404 | 6964 ft | 268 kts | 186° |
| 2026-04-24 23:56 | -34.16805 | -58.74596 | 6674 ft | 268 kts | 186° |
| 2026-04-24 23:56 | -34.18665 | -58.74789 | 6377 ft | 269 kts | 186° |
| 2026-04-24 23:56 | -34.20521 | -58.74983 | 6097 ft | 268 kts | 186° |
| 2026-04-24 23:56 | -34.22379 | -58.75176 | 5835 ft | 269 kts | 186° |
| 2026-04-24 23:57 | -34.24243 | -58.75369 | 5520 ft | 269 kts | 186° |
| 2026-04-24 23:57 | -34.26089 | -58.75561 | 5314 ft | 264 kts | 186° |
| 2026-04-24 23:57 | -34.27899 | -58.75749 | 5182 ft | 259 kts | 186° |
| 2026-04-24 23:57 | -34.29666 | -58.75933 | 5052 ft | 251 kts | 186° |
| 2026-04-24 23:58 | -34.31378 | -58.76038 | 4946 ft | 246 kts | 173° |
| 2026-04-24 23:58 | -34.32952 | -58.75319 | 4734 ft | 245 kts | 142° |
| 2026-04-24 23:58 | -34.34189 | -58.73921 | 4605 ft | 245 kts | 134° |
| 2026-04-24 23:58 | -34.35404 | -58.72463 | 4419 ft | 247 kts | 134° |
| 2026-04-24 23:59 | -34.36615 | -58.70993 | 4212 ft | 245 kts | 134° |
| 2026-04-24 23:59 | -34.37809 | -58.69532 | 4047 ft | 244 kts | 134° |
| 2026-04-24 23:59 | -34.38995 | -58.68071 | 3845 ft | 244 kts | 133° |
| 2026-04-24 23:59 | -34.40174 | -58.66612 | 3671 ft | 242 kts | 133° |
| 2026-04-25 00:00 | -34.41341 | -58.65156 | 3491 ft | 240 kts | 132° |
| 2026-04-25 00:00 | -34.42494 | -58.63721 | 3291 ft | 235 kts | 133° |
| 2026-04-25 00:00 | -34.43616 | -58.62330 | 3247 ft | 230 kts | 132° |
| 2026-04-25 00:00 | -34.44710 | -58.60965 | 3170 ft | 222 kts | 132° |
| 2026-04-25 00:01 | -34.45738 | -58.59588 | 3017 ft | 220 kts | 127° |
| 2026-04-25 00:01 | -34.46648 | -58.58143 | 2916 ft | 212 kts | 124° |
| 2026-04-25 00:01 | -34.47489 | -58.56692 | 2721 ft | 213 kts | 122° |
| 2026-04-25 00:01 | -34.48326 | -58.55209 | 2484 ft | 212 kts | 122° |
| 2026-04-25 00:02 | -34.49149 | -58.53745 | 2246 ft | 208 kts | 121° |
| 2026-04-25 00:02 | -34.49945 | -58.52305 | 1970 ft | 205 kts | 122° |
| 2026-04-25 00:02 | -34.50704 | -58.50939 | 1681 ft | 185 kts | 121° |
| 2026-04-25 00:02 | -34.51386 | -58.49719 | 1472 ft | 164 kts | 122° |
| 2026-04-25 00:03 | -34.51996 | -58.48623 | 1291 ft | 155 kts | 122° |
| 2026-04-25 00:03 | -34.52593 | -58.47546 | 1041 ft | 153 kts | 122° |
| 2026-04-25 00:03 | -34.53185 | -58.46487 | 848 ft | 151 kts | 122° |
| 2026-04-25 00:03 | -34.53767 | -58.45442 | 649 ft | 148 kts | 123° |
| 2026-04-25 00:04 | -34.54333 | -58.44406 | 361 ft | 147 kts | 124° |
| 2026-04-25 00:04 | -34.54914 | -58.43398 | 116 ft | 146 kts | 122° |
| 2026-04-25 00:04 | -34.55470 | -58.42377 | 47 ft | 142 kts | 123° |
| 2026-04-25 00:04 | -34.55957 | -58.41516 | 26 ft | 93 kts | 124° |
| 2026-04-25 00:05 | -34.56152 | -58.41168 | 29 ft | 20 kts | 122° |
| 2026-04-25 00:05 | -34.56188 | -58.41055 | 29 ft | 12 kts | 65° |
| 2026-04-25 00:05 | -34.56170 | -58.41019 | 28 ft | 1 kts | 58° |
| 2026-04-25 00:05 | -34.56160 | -58.41000 | 28 ft | 4 kts | 55° |
| 2026-04-25 00:06 | -34.56135 | -58.40988 | 28 ft | 4 kts | 351° |
| 2026-04-25 00:06 | -34.56106 | -58.41012 | 28 ft | 6 kts | 316° |
| 2026-04-25 00:06 | -34.56075 | -58.41060 | 28 ft | 8 kts | 306° |
| 2026-04-25 00:06 | -34.56036 | -58.41124 | 28 ft | 11 kts | 308° |
| 2026-04-25 00:07 | -34.55986 | -58.41202 | 28 ft | 13 kts | 308° |
| 2026-04-25 00:07 | -34.55933 | -58.41288 | 28 ft | 11 kts | 307° |
| 2026-04-25 00:07 | -34.55920 | -58.41302 | 28 ft | 1 kts | 338° |
| 2026-04-25 00:07 | -34.55907 | -58.41300 | 28 ft | 3 kts | 12° |
| 2026-04-25 00:08 | -34.55882 | -58.41290 | 28 ft | 5 kts | 19° |
| 2026-04-25 00:08 | -34.55842 | -58.41285 | 28 ft | 6 kts | 336° |
| 2026-04-25 00:08 | -34.55808 | -58.41330 | 28 ft | 8 kts | 301° |
| 2026-04-25 00:08 | -34.55775 | -58.41397 | 28 ft | 10 kts | 303° |
| 2026-04-25 00:09 | -34.55738 | -58.41467 | 28 ft | 10 kts | 298° |
| 2026-04-25 00:09 | -34.55705 | -58.41495 | 28 ft | 6 kts | 9° |
| 2026-04-25 00:09 | -34.55690 | -58.41490 | 28 ft | 1 kts | 15° |
| 2026-04-25 00:09 | -34.55682 | -58.41487 | 28 ft | 0 kts | 14° |